sensor_id;sensor_type;location;lat;lon;timestamp;P1;durP1;ratioP1;P2;durP2;ratioP2
21274;SDS011;36472;52.170;20.884;2023-03-05T00:01:47;16.13;;;8.20;;
21274;SDS011;36472;52.170;20.884;2023-03-05T00:04:16;15.50;;;8.03;;
21274;SDS011;36472;52.170;20.884;2023-03-05T00:06:46;15.23;;;7.10;;
21274;SDS011;36472;52.170;20.884;2023-03-05T00:09:14;14.77;;;7.07;;
21274;SDS011;36472;52.170;20.884;2023-03-05T00:11:43;14.97;;;7.33;;
21274;SDS011;36472;52.170;20.884;2023-03-05T00:14:14;13.77;;;6.83;;
21274;SDS011;36472;52.170;20.884;2023-03-05T00:16:43;15.43;;;7.57;;
21274;SDS011;36472;52.170;20.884;2023-03-05T00:19:12;12.30;;;6.77;;
21274;SDS011;36472;52.170;20.884;2023-03-05T00:21:41;16.27;;;7.43;;
21274;SDS011;36472;52.170;20.884;2023-03-05T00:24:11;12.93;;;6.50;;
21274;SDS011;36472;52.170;20.884;2023-03-05T00:26:43;14.23;;;6.80;;
21274;SDS011;36472;52.170;20.884;2023-03-05T00:29:15;14.27;;;6.73;;
21274;SDS011;36472;52.170;20.884;2023-03-05T00:31:47;15.23;;;6.73;;
21274;SDS011;36472;52.170;20.884;2023-03-05T00:34:17;14.57;;;6.93;;
21274;SDS011;36472;52.170;20.884;2023-03-05T00:36:48;13.27;;;7.40;;
21274;SDS011;36472;52.170;20.884;2023-03-05T00:39:19;15.77;;;7.10;;
21274;SDS011;36472;52.170;20.884;2023-03-05T00:41:49;14.70;;;7.37;;
21274;SDS011;36472;52.170;20.884;2023-03-05T00:44:19;12.30;;;6.53;;
21274;SDS011;36472;52.170;20.884;2023-03-05T00:46:49;14.27;;;7.20;;
21274;SDS011;36472;52.170;20.884;2023-03-05T00:49:18;15.07;;;7.20;;
21274;SDS011;36472;52.170;20.884;2023-03-05T00:51:47;12.97;;;6.77;;
21274;SDS011;36472;52.170;20.884;2023-03-05T00:54:16;12.77;;;7.00;;
21274;SDS011;36472;52.170;20.884;2023-03-05T00:56:45;16.73;;;7.33;;
21274;SDS011;36472;52.170;20.884;2023-03-05T00:59:14;15.03;;;6.73;;
21274;SDS011;36472;52.170;20.884;2023-03-05T01:01:45;14.07;;;7.30;;
21274;SDS011;36472;52.170;20.884;2023-03-05T01:04:14;16.73;;;7.83;;
21274;SDS011;36472;52.170;20.884;2023-03-05T01:06:43;13.40;;;6.80;;
21274;SDS011;36472;52.170;20.884;2023-03-05T01:09:12;16.87;;;8.17;;
21274;SDS011;36472;52.170;20.884;2023-03-05T01:11:42;18.73;;;8.03;;
21274;SDS011;36472;52.170;20.884;2023-03-05T01:14:10;17.13;;;7.47;;
21274;SDS011;36472;52.170;20.884;2023-03-05T01:16:39;17.40;;;7.73;;
21274;SDS011;36472;52.170;20.884;2023-03-05T01:19:10;18.40;;;7.73;;
21274;SDS011;36472;52.170;20.884;2023-03-05T01:21:40;15.33;;;7.30;;
21274;SDS011;36472;52.170;20.884;2023-03-05T01:24:09;14.43;;;7.70;;
21274;SDS011;36472;52.170;20.884;2023-03-05T01:26:39;13.57;;;7.47;;
21274;SDS011;36472;52.170;20.884;2023-03-05T01:29:08;17.43;;;8.17;;
21274;SDS011;36472;52.170;20.884;2023-03-05T01:31:37;18.20;;;7.80;;
21274;SDS011;36472;52.170;20.884;2023-03-05T01:34:06;17.07;;;8.00;;
21274;SDS011;36472;52.170;20.884;2023-03-05T01:36:36;18.00;;;8.37;;
21274;SDS011;36472;52.170;20.884;2023-03-05T01:39:07;15.70;;;7.57;;
21274;SDS011;36472;52.170;20.884;2023-03-05T01:41:37;18.57;;;8.20;;
21274;SDS011;36472;52.170;20.884;2023-03-05T01:44:05;14.80;;;7.83;;
21274;SDS011;36472;52.170;20.884;2023-03-05T01:46:35;15.63;;;7.37;;
21274;SDS011;36472;52.170;20.884;2023-03-05T01:49:14;15.87;;;7.73;;
21274;SDS011;36472;52.170;20.884;2023-03-05T01:51:52;14.97;;;7.20;;
21274;SDS011;36472;52.170;20.884;2023-03-05T01:54:31;15.33;;;7.87;;
21274;SDS011;36472;52.170;20.884;2023-03-05T01:57:06;16.57;;;7.93;;
21274;SDS011;36472;52.170;20.884;2023-03-05T01:59:39;17.30;;;7.57;;
21274;SDS011;36472;52.170;20.884;2023-03-05T02:02:12;12.93;;;7.00;;
21274;SDS011;36472;52.170;20.884;2023-03-05T02:04:43;17.77;;;7.73;;
21274;SDS011;36472;52.170;20.884;2023-03-05T02:07:20;17.13;;;7.37;;
21274;SDS011;36472;52.170;20.884;2023-03-05T02:09:50;16.80;;;7.37;;
21274;SDS011;36472;52.170;20.884;2023-03-05T02:12:19;17.47;;;7.67;;
21274;SDS011;36472;52.170;20.884;2023-03-05T02:14:49;14.80;;;7.20;;
21274;SDS011;36472;52.170;20.884;2023-03-05T02:17:26;13.33;;;7.23;;
21274;SDS011;36472;52.170;20.884;2023-03-05T02:19:57;16.97;;;7.33;;
21274;SDS011;36472;52.170;20.884;2023-03-05T02:22:35;15.97;;;7.60;;
21274;SDS011;36472;52.170;20.884;2023-03-05T02:25:11;15.63;;;7.60;;
21274;SDS011;36472;52.170;20.884;2023-03-05T02:27:45;15.07;;;7.50;;
21274;SDS011;36472;52.170;20.884;2023-03-05T02:30:23;15.37;;;7.17;;
21274;SDS011;36472;52.170;20.884;2023-03-05T02:32:53;15.53;;;7.53;;
21274;SDS011;36472;52.170;20.884;2023-03-05T02:35:22;15.50;;;6.97;;
21274;SDS011;36472;52.170;20.884;2023-03-05T02:37:53;15.70;;;7.13;;
21274;SDS011;36472;52.170;20.884;2023-03-05T02:40:22;16.30;;;7.47;;
21274;SDS011;36472;52.170;20.884;2023-03-05T02:42:52;13.93;;;7.33;;
21274;SDS011;36472;52.170;20.884;2023-03-05T02:45:21;12.60;;;6.87;;
21274;SDS011;36472;52.170;20.884;2023-03-05T02:47:50;13.50;;;6.73;;
21274;SDS011;36472;52.170;20.884;2023-03-05T02:50:19;15.40;;;7.17;;
21274;SDS011;36472;52.170;20.884;2023-03-05T02:52:49;14.93;;;6.80;;
21274;SDS011;36472;52.170;20.884;2023-03-05T02:55:20;13.23;;;6.30;;
21274;SDS011;36472;52.170;20.884;2023-03-05T02:57:50;16.60;;;6.87;;
21274;SDS011;36472;52.170;20.884;2023-03-05T03:00:19;13.37;;;6.80;;
21274;SDS011;36472;52.170;20.884;2023-03-05T03:02:49;13.57;;;7.30;;
21274;SDS011;36472;52.170;20.884;2023-03-05T03:05:18;15.23;;;6.93;;
21274;SDS011;36472;52.170;20.884;2023-03-05T03:07:47;13.70;;;7.10;;
21274;SDS011;36472;52.170;20.884;2023-03-05T03:10:16;13.83;;;6.73;;
21274;SDS011;36472;52.170;20.884;2023-03-05T03:12:47;14.27;;;6.90;;
21274;SDS011;36472;52.170;20.884;2023-03-05T03:15:16;12.47;;;6.67;;
21274;SDS011;36472;52.170;20.884;2023-03-05T03:17:45;14.87;;;7.10;;
21274;SDS011;36472;52.170;20.884;2023-03-05T03:20:14;15.57;;;7.23;;
21274;SDS011;36472;52.170;20.884;2023-03-05T03:22:45;14.93;;;6.63;;
21274;SDS011;36472;52.170;20.884;2023-03-05T03:25:14;14.07;;;7.00;;
21274;SDS011;36472;52.170;20.884;2023-03-05T03:27:52;11.00;;;6.10;;
21274;SDS011;36472;52.170;20.884;2023-03-05T03:30:21;14.70;;;7.80;;
21274;SDS011;36472;52.170;20.884;2023-03-05T03:32:51;15.57;;;6.27;;
21274;SDS011;36472;52.170;20.884;2023-03-05T03:35:20;13.17;;;6.90;;
21274;SDS011;36472;52.170;20.884;2023-03-05T03:37:49;14.70;;;6.93;;
21274;SDS011;36472;52.170;20.884;2023-03-05T03:40:18;19.00;;;7.17;;
21274;SDS011;36472;52.170;20.884;2023-03-05T03:42:49;12.03;;;6.57;;
21274;SDS011;36472;52.170;20.884;2023-03-05T03:45:20;15.37;;;6.97;;
21274;SDS011;36472;52.170;20.884;2023-03-05T03:47:50;12.60;;;6.93;;
21274;SDS011;36472;52.170;20.884;2023-03-05T03:50:19;17.40;;;6.63;;
21274;SDS011;36472;52.170;20.884;2023-03-05T03:52:51;16.63;;;7.00;;
21274;SDS011;36472;52.170;20.884;2023-03-05T03:55:19;14.73;;;6.83;;
21274;SDS011;36472;52.170;20.884;2023-03-05T03:57:48;12.80;;;6.97;;
21274;SDS011;36472;52.170;20.884;2023-03-05T04:00:18;15.53;;;6.23;;
21274;SDS011;36472;52.170;20.884;2023-03-05T04:02:49;13.23;;;6.63;;
21274;SDS011;36472;52.170;20.884;2023-03-05T04:05:18;12.93;;;6.20;;
21274;SDS011;36472;52.170;20.884;2023-03-05T04:07:47;11.83;;;6.00;;
21274;SDS011;36472;52.170;20.884;2023-03-05T04:10:16;11.80;;;6.73;;
21274;SDS011;36472;52.170;20.884;2023-03-05T04:12:45;12.13;;;6.10;;
21274;SDS011;36472;52.170;20.884;2023-03-05T04:15:14;15.00;;;6.47;;
21274;SDS011;36472;52.170;20.884;2023-03-05T04:17:45;13.50;;;6.70;;
21274;SDS011;36472;52.170;20.884;2023-03-05T04:20:14;17.50;;;6.80;;
21274;SDS011;36472;52.170;20.884;2023-03-05T04:22:43;14.33;;;6.80;;
21274;SDS011;36472;52.170;20.884;2023-03-05T04:25:12;14.17;;;6.80;;
21274;SDS011;36472;52.170;20.884;2023-03-05T04:27:41;15.57;;;7.13;;
21274;SDS011;36472;52.170;20.884;2023-03-05T04:30:12;12.10;;;6.13;;
21274;SDS011;36472;52.170;20.884;2023-03-05T04:32:42;13.20;;;6.63;;
21274;SDS011;36472;52.170;20.884;2023-03-05T04:35:12;11.20;;;6.20;;
21274;SDS011;36472;52.170;20.884;2023-03-05T04:37:41;15.13;;;6.90;;
21274;SDS011;36472;52.170;20.884;2023-03-05T04:40:10;13.40;;;5.97;;
21274;SDS011;36472;52.170;20.884;2023-03-05T04:42:40;14.57;;;6.67;;
21274;SDS011;36472;52.170;20.884;2023-03-05T04:45:09;15.33;;;6.43;;
21274;SDS011;36472;52.170;20.884;2023-03-05T04:47:39;13.73;;;6.60;;
21274;SDS011;36472;52.170;20.884;2023-03-05T04:50:08;13.20;;;6.67;;
21274;SDS011;36472;52.170;20.884;2023-03-05T04:52:41;13.47;;;6.87;;
21274;SDS011;36472;52.170;20.884;2023-03-05T04:55:13;15.40;;;6.93;;
21274;SDS011;36472;52.170;20.884;2023-03-05T04:57:43;14.37;;;6.73;;
21274;SDS011;36472;52.170;20.884;2023-03-05T05:00:13;13.27;;;6.70;;
21274;SDS011;36472;52.170;20.884;2023-03-05T05:02:44;12.23;;;6.40;;
21274;SDS011;36472;52.170;20.884;2023-03-05T05:05:18;11.13;;;6.00;;
21274;SDS011;36472;52.170;20.884;2023-03-05T05:07:51;10.57;;;5.97;;
21274;SDS011;36472;52.170;20.884;2023-03-05T05:10:22;13.47;;;6.00;;
21274;SDS011;36472;52.170;20.884;2023-03-05T05:12:52;13.17;;;6.40;;
21274;SDS011;36472;52.170;20.884;2023-03-05T05:15:21;12.03;;;6.23;;
21274;SDS011;36472;52.170;20.884;2023-03-05T05:17:50;14.90;;;6.30;;
21274;SDS011;36472;52.170;20.884;2023-03-05T05:20:21;15.73;;;5.87;;
21274;SDS011;36472;52.170;20.884;2023-03-05T05:22:50;10.83;;;5.67;;
21274;SDS011;36472;52.170;20.884;2023-03-05T05:25:18;10.17;;;4.97;;
21274;SDS011;36472;52.170;20.884;2023-03-05T05:27:48;12.80;;;6.10;;
21274;SDS011;36472;52.170;20.884;2023-03-05T05:30:16;11.90;;;5.37;;
21274;SDS011;36472;52.170;20.884;2023-03-05T05:32:45;11.90;;;5.80;;
21274;SDS011;36472;52.170;20.884;2023-03-05T05:35:14;10.30;;;5.30;;
21274;SDS011;36472;52.170;20.884;2023-03-05T05:37:45;9.97;;;5.03;;
21274;SDS011;36472;52.170;20.884;2023-03-05T05:40:14;9.73;;;5.10;;
21274;SDS011;36472;52.170;20.884;2023-03-05T05:42:43;9.33;;;5.30;;
21274;SDS011;36472;52.170;20.884;2023-03-05T05:45:12;10.77;;;5.37;;
21274;SDS011;36472;52.170;20.884;2023-03-05T05:47:41;10.00;;;4.87;;
21274;SDS011;36472;52.170;20.884;2023-03-05T05:50:10;9.93;;;5.03;;
21274;SDS011;36472;52.170;20.884;2023-03-05T05:52:40;10.23;;;5.53;;
21274;SDS011;36472;52.170;20.884;2023-03-05T05:55:11;10.50;;;5.47;;
21274;SDS011;36472;52.170;20.884;2023-03-05T05:57:40;9.63;;;5.13;;
21274;SDS011;36472;52.170;20.884;2023-03-05T06:00:10;12.20;;;5.10;;
21274;SDS011;36472;52.170;20.884;2023-03-05T06:02:41;11.17;;;4.97;;
21274;SDS011;36472;52.170;20.884;2023-03-05T06:05:11;8.83;;;4.90;;
21274;SDS011;36472;52.170;20.884;2023-03-05T06:07:41;9.13;;;4.80;;
21274;SDS011;36472;52.170;20.884;2023-03-05T06:10:12;9.07;;;5.23;;
21274;SDS011;36472;52.170;20.884;2023-03-05T06:12:41;10.23;;;4.93;;
21274;SDS011;36472;52.170;20.884;2023-03-05T06:15:10;11.27;;;4.77;;
21274;SDS011;36472;52.170;20.884;2023-03-05T06:17:40;10.67;;;5.20;;
21274;SDS011;36472;52.170;20.884;2023-03-05T06:20:09;9.43;;;4.47;;
21274;SDS011;36472;52.170;20.884;2023-03-05T06:22:39;11.67;;;5.57;;
21274;SDS011;36472;52.170;20.884;2023-03-05T06:25:09;10.50;;;4.30;;
21274;SDS011;36472;52.170;20.884;2023-03-05T06:27:40;9.23;;;4.32;;
21274;SDS011;36472;52.170;20.884;2023-03-05T06:30:09;9.70;;;5.07;;
21274;SDS011;36472;52.170;20.884;2023-03-05T06:32:39;11.00;;;5.60;;
21274;SDS011;36472;52.170;20.884;2023-03-05T06:35:08;12.13;;;6.07;;
21274;SDS011;36472;52.170;20.884;2023-03-05T06:37:37;15.33;;;6.33;;
21274;SDS011;36472;52.170;20.884;2023-03-05T06:40:07;15.43;;;6.93;;
21274;SDS011;36472;52.170;20.884;2023-03-05T06:42:37;15.27;;;7.13;;
21274;SDS011;36472;52.170;20.884;2023-03-05T06:45:08;12.17;;;5.97;;
21274;SDS011;36472;52.170;20.884;2023-03-05T06:47:38;10.73;;;5.93;;
21274;SDS011;36472;52.170;20.884;2023-03-05T06:50:07;9.00;;;5.67;;
21274;SDS011;36472;52.170;20.884;2023-03-05T06:52:38;7.70;;;4.97;;
21274;SDS011;36472;52.170;20.884;2023-03-05T06:55:07;11.27;;;4.90;;
21274;SDS011;36472;52.170;20.884;2023-03-05T06:57:37;9.53;;;5.20;;
21274;SDS011;36472;52.170;20.884;2023-03-05T07:00:08;11.67;;;5.50;;
21274;SDS011;36472;52.170;20.884;2023-03-05T07:02:39;10.27;;;5.10;;
21274;SDS011;36472;52.170;20.884;2023-03-05T07:05:08;7.53;;;4.60;;
21274;SDS011;36472;52.170;20.884;2023-03-05T07:07:37;13.23;;;5.10;;
21274;SDS011;36472;52.170;20.884;2023-03-05T07:10:07;11.10;;;4.57;;
21274;SDS011;36472;52.170;20.884;2023-03-05T07:12:37;8.30;;;4.80;;
21274;SDS011;36472;52.170;20.884;2023-03-05T07:15:09;8.50;;;4.90;;
21274;SDS011;36472;52.170;20.884;2023-03-05T07:17:39;9.43;;;4.93;;
21274;SDS011;36472;52.170;20.884;2023-03-05T07:20:08;8.88;;;4.82;;
21274;SDS011;36472;52.170;20.884;2023-03-05T07:22:39;9.73;;;4.45;;
21274;SDS011;36472;52.170;20.884;2023-03-05T07:25:08;10.13;;;4.50;;
21274;SDS011;36472;52.170;20.884;2023-03-05T07:27:37;7.13;;;4.28;;
21274;SDS011;36472;52.170;20.884;2023-03-05T07:30:08;10.20;;;4.72;;
21274;SDS011;36472;52.170;20.884;2023-03-05T07:32:39;7.70;;;4.15;;
21274;SDS011;36472;52.170;20.884;2023-03-05T07:35:08;7.10;;;3.88;;
21274;SDS011;36472;52.170;20.884;2023-03-05T07:37:38;9.68;;;4.55;;
21274;SDS011;36472;52.170;20.884;2023-03-05T07:40:07;9.67;;;4.63;;
21274;SDS011;36472;52.170;20.884;2023-03-05T07:42:39;6.43;;;4.75;;
21274;SDS011;36472;52.170;20.884;2023-03-05T07:45:18;7.90;;;4.45;;
21274;SDS011;36472;52.170;20.884;2023-03-05T07:47:47;9.77;;;5.10;;
21274;SDS011;36472;52.170;20.884;2023-03-05T07:50:18;9.25;;;5.05;;
21274;SDS011;36472;52.170;20.884;2023-03-05T07:52:47;9.35;;;4.80;;
21274;SDS011;36472;52.170;20.884;2023-03-05T07:55:16;9.70;;;4.85;;
21274;SDS011;36472;52.170;20.884;2023-03-05T07:57:46;9.90;;;5.05;;
21274;SDS011;36472;52.170;20.884;2023-03-05T08:00:16;11.38;;;6.15;;
21274;SDS011;36472;52.170;20.884;2023-03-05T08:02:46;9.23;;;4.97;;
21274;SDS011;36472;52.170;20.884;2023-03-05T08:05:16;9.88;;;5.50;;
21274;SDS011;36472;52.170;20.884;2023-03-05T08:07:45;9.83;;;5.60;;
21274;SDS011;36472;52.170;20.884;2023-03-05T08:10:14;13.88;;;6.00;;
21274;SDS011;36472;52.170;20.884;2023-03-05T08:12:43;11.20;;;5.65;;
21274;SDS011;36472;52.170;20.884;2023-03-05T08:15:13;12.25;;;4.93;;
21274;SDS011;36472;52.170;20.884;2023-03-05T08:17:43;9.90;;;5.72;;
21274;SDS011;36472;52.170;20.884;2023-03-05T08:20:12;9.63;;;5.35;;
21274;SDS011;36472;52.170;20.884;2023-03-05T08:22:41;9.45;;;5.38;;
21274;SDS011;36472;52.170;20.884;2023-03-05T08:25:10;11.13;;;6.03;;
21274;SDS011;36472;52.170;20.884;2023-03-05T08:27:41;10.18;;;5.63;;
21274;SDS011;36472;52.170;20.884;2023-03-05T08:30:15;11.50;;;6.40;;
21274;SDS011;36472;52.170;20.884;2023-03-05T08:32:47;13.30;;;6.63;;
21274;SDS011;36472;52.170;20.884;2023-03-05T08:35:16;9.85;;;5.93;;
21274;SDS011;36472;52.170;20.884;2023-03-05T08:37:45;12.90;;;5.82;;
21274;SDS011;36472;52.170;20.884;2023-03-05T08:40:15;10.85;;;6.00;;
21274;SDS011;36472;52.170;20.884;2023-03-05T08:42:45;10.88;;;6.13;;
21274;SDS011;36472;52.170;20.884;2023-03-05T08:45:15;13.50;;;6.57;;
21274;SDS011;36472;52.170;20.884;2023-03-05T08:47:45;15.00;;;7.03;;
21274;SDS011;36472;52.170;20.884;2023-03-05T08:50:13;13.98;;;6.25;;
21274;SDS011;36472;52.170;20.884;2023-03-05T08:52:43;15.43;;;7.25;;
21274;SDS011;36472;52.170;20.884;2023-03-05T08:55:12;14.43;;;7.10;;
21274;SDS011;36472;52.170;20.884;2023-03-05T08:57:41;12.38;;;7.15;;
21274;SDS011;36472;52.170;20.884;2023-03-05T09:00:11;13.02;;;7.00;;
21274;SDS011;36472;52.170;20.884;2023-03-05T09:02:42;12.05;;;6.95;;
21274;SDS011;36472;52.170;20.884;2023-03-05T09:05:11;11.65;;;7.05;;
21274;SDS011;36472;52.170;20.884;2023-03-05T09:07:41;11.48;;;6.72;;
21274;SDS011;36472;52.170;20.884;2023-03-05T09:10:10;12.80;;;6.72;;
21274;SDS011;36472;52.170;20.884;2023-03-05T09:12:41;12.25;;;6.78;;
21274;SDS011;36472;52.170;20.884;2023-03-05T09:15:10;14.68;;;7.32;;
21274;SDS011;36472;52.170;20.884;2023-03-05T09:17:39;12.65;;;6.88;;
21274;SDS011;36472;52.170;20.884;2023-03-05T09:20:11;13.05;;;7.05;;
21274;SDS011;36472;52.170;20.884;2023-03-05T09:22:41;14.38;;;6.80;;
21274;SDS011;36472;52.170;20.884;2023-03-05T09:25:11;13.43;;;7.15;;
21274;SDS011;36472;52.170;20.884;2023-03-05T09:27:40;15.27;;;8.27;;
21274;SDS011;36472;52.170;20.884;2023-03-05T09:30:11;13.48;;;7.13;;
21274;SDS011;36472;52.170;20.884;2023-03-05T09:32:41;11.02;;;7.40;;
21274;SDS011;36472;52.170;20.884;2023-03-05T09:35:12;16.42;;;7.80;;
21274;SDS011;36472;52.170;20.884;2023-03-05T09:37:41;16.10;;;7.43;;
21274;SDS011;36472;52.170;20.884;2023-03-05T09:40:12;12.23;;;7.60;;
21274;SDS011;36472;52.170;20.884;2023-03-05T09:42:49;16.05;;;8.15;;
21274;SDS011;36472;52.170;20.884;2023-03-05T09:45:34;14.27;;;7.75;;
21274;SDS011;36472;52.170;20.884;2023-03-05T09:48:11;14.68;;;8.15;;
21274;SDS011;36472;52.170;20.884;2023-03-05T09:50:48;18.05;;;9.10;;
21274;SDS011;36472;52.170;20.884;2023-03-05T09:53:26;14.63;;;8.18;;
21274;SDS011;36472;52.170;20.884;2023-03-05T09:56:10;15.98;;;8.98;;
21274;SDS011;36472;52.170;20.884;2023-03-05T09:58:44;17.20;;;9.50;;
21274;SDS011;36472;52.170;20.884;2023-03-05T10:01:19;15.25;;;9.15;;
21274;SDS011;36472;52.170;20.884;2023-03-05T10:03:55;13.20;;;8.35;;
21274;SDS011;36472;52.170;20.884;2023-03-05T10:06:33;16.90;;;9.00;;
21274;SDS011;36472;52.170;20.884;2023-03-05T10:09:11;16.15;;;9.80;;
21274;SDS011;36472;52.170;20.884;2023-03-05T10:11:52;16.02;;;9.25;;
21274;SDS011;36472;52.170;20.884;2023-03-05T10:14:27;14.68;;;8.88;;
21274;SDS011;36472;52.170;20.884;2023-03-05T10:17:11;19.90;;;9.55;;
21274;SDS011;36472;52.170;20.884;2023-03-05T10:20:28;18.80;;;10.13;;
21274;SDS011;36472;52.170;20.884;2023-03-05T10:23:35;14.03;;;9.00;;
21274;SDS011;36472;52.170;20.884;2023-03-05T10:32:35;16.27;;;9.40;;
21274;SDS011;36472;52.170;20.884;2023-03-05T10:35:18;20.65;;;10.15;;
21274;SDS011;36472;52.170;20.884;2023-03-05T10:38:38;18.92;;;9.20;;
21274;SDS011;36472;52.170;20.884;2023-03-05T10:41:28;16.20;;;9.07;;
21274;SDS011;36472;52.170;20.884;2023-03-05T10:44:12;18.17;;;9.13;;
21274;SDS011;36472;52.170;20.884;2023-03-05T10:46:49;17.23;;;9.02;;
21274;SDS011;36472;52.170;20.884;2023-03-05T10:49:22;18.02;;;9.48;;
21274;SDS011;36472;52.170;20.884;2023-03-05T10:51:57;16.60;;;8.80;;
21274;SDS011;36472;52.170;20.884;2023-03-05T10:54:37;16.98;;;9.52;;
21274;SDS011;36472;52.170;20.884;2023-03-05T10:57:12;17.77;;;8.90;;
21274;SDS011;36472;52.170;20.884;2023-03-05T10:59:47;12.63;;;8.05;;
21274;SDS011;36472;52.170;20.884;2023-03-05T11:02:19;13.23;;;7.72;;
21274;SDS011;36472;52.170;20.884;2023-03-05T11:04:50;16.38;;;8.23;;
21274;SDS011;36472;52.170;20.884;2023-03-05T11:10:17;13.95;;;8.10;;
21274;SDS011;36472;52.170;20.884;2023-03-05T11:12:47;17.80;;;9.98;;
21274;SDS011;36472;52.170;20.884;2023-03-05T11:15:27;14.43;;;8.47;;
21274;SDS011;36472;52.170;20.884;2023-03-05T11:18:05;17.38;;;9.57;;
21274;SDS011;36472;52.170;20.884;2023-03-05T11:20:45;14.15;;;9.00;;
21274;SDS011;36472;52.170;20.884;2023-03-05T11:23:14;17.63;;;9.20;;
21274;SDS011;36472;52.170;20.884;2023-03-05T11:25:54;14.68;;;8.82;;
21274;SDS011;36472;52.170;20.884;2023-03-05T11:28:29;18.70;;;10.43;;
21274;SDS011;36472;52.170;20.884;2023-03-05T11:31:03;18.58;;;11.07;;
21274;SDS011;36472;52.170;20.884;2023-03-05T11:33:53;17.50;;;11.67;;
21274;SDS011;36472;52.170;20.884;2023-03-05T11:36:27;19.03;;;9.80;;
21274;SDS011;36472;52.170;20.884;2023-03-05T11:39:02;12.07;;;7.63;;
21274;SDS011;36472;52.170;20.884;2023-03-05T11:41:41;15.48;;;7.03;;
21274;SDS011;36472;52.170;20.884;2023-03-05T11:44:19;10.68;;;6.43;;
21274;SDS011;36472;52.170;20.884;2023-03-05T11:46:53;8.80;;;5.47;;
21274;SDS011;36472;52.170;20.884;2023-03-05T11:49:29;8.52;;;5.68;;
21274;SDS011;36472;52.170;20.884;2023-03-05T11:52:03;7.70;;;4.90;;
21274;SDS011;36472;52.170;20.884;2023-03-05T11:54:41;6.35;;;4.55;;
21274;SDS011;36472;52.170;20.884;2023-03-05T11:57:22;9.98;;;5.22;;
21274;SDS011;36472;52.170;20.884;2023-03-05T11:59:53;7.93;;;5.47;;
21274;SDS011;36472;52.170;20.884;2023-03-05T12:02:26;9.50;;;5.82;;
21274;SDS011;36472;52.170;20.884;2023-03-05T12:04:55;10.23;;;5.87;;
21274;SDS011;36472;52.170;20.884;2023-03-05T12:07:28;11.23;;;7.23;;
21274;SDS011;36472;52.170;20.884;2023-03-05T12:10:02;10.53;;;6.70;;
21274;SDS011;36472;52.170;20.884;2023-03-05T12:12:36;11.13;;;6.72;;
21274;SDS011;36472;52.170;20.884;2023-03-05T12:15:23;11.57;;;7.03;;
21274;SDS011;36472;52.170;20.884;2023-03-05T12:18:25;15.52;;;8.25;;
21274;SDS011;36472;52.170;20.884;2023-03-05T12:21:05;10.27;;;7.28;;
21274;SDS011;36472;52.170;20.884;2023-03-05T12:23:45;12.67;;;6.53;;
21274;SDS011;36472;52.170;20.884;2023-03-05T12:26:16;12.83;;;6.97;;
21274;SDS011;36472;52.170;20.884;2023-03-05T12:29:11;10.82;;;6.80;;
21274;SDS011;36472;52.170;20.884;2023-03-05T12:31:57;9.70;;;5.87;;
21274;SDS011;36472;52.170;20.884;2023-03-05T12:44:18;12.03;;;7.07;;
21274;SDS011;36472;52.170;20.884;2023-03-05T12:49:49;12.93;;;7.07;;
21274;SDS011;36472;52.170;20.884;2023-03-05T12:52:28;12.13;;;7.67;;
21274;SDS011;36472;52.170;20.884;2023-03-05T12:57:51;13.00;;;6.90;;
21274;SDS011;36472;52.170;20.884;2023-03-05T13:00:29;9.70;;;6.40;;
21274;SDS011;36472;52.170;20.884;2023-03-05T13:03:10;8.90;;;5.45;;
21274;SDS011;36472;52.170;20.884;2023-03-05T13:05:48;9.52;;;4.85;;
21274;SDS011;36472;52.170;20.884;2023-03-05T13:08:21;20.33;;;10.75;;
21274;SDS011;36472;52.170;20.884;2023-03-05T13:10:52;11.15;;;7.28;;
21274;SDS011;36472;52.170;20.884;2023-03-05T13:13:26;10.68;;;5.35;;
21274;SDS011;36472;52.170;20.884;2023-03-05T13:16:01;11.80;;;6.67;;
21274;SDS011;36472;52.170;20.884;2023-03-05T13:18:40;10.25;;;6.35;;
21274;SDS011;36472;52.170;20.884;2023-03-05T13:21:14;11.60;;;6.38;;
21274;SDS011;36472;52.170;20.884;2023-03-05T13:23:45;9.55;;;5.20;;
21274;SDS011;36472;52.170;20.884;2023-03-05T13:26:24;11.77;;;6.45;;
21274;SDS011;36472;52.170;20.884;2023-03-05T13:29:05;9.90;;;5.53;;
21274;SDS011;36472;52.170;20.884;2023-03-05T13:31:43;10.57;;;6.80;;
21274;SDS011;36472;52.170;20.884;2023-03-05T13:34:15;9.05;;;5.97;;
21274;SDS011;36472;52.170;20.884;2023-03-05T13:36:53;11.30;;;6.55;;
21274;SDS011;36472;52.170;20.884;2023-03-05T13:39:27;16.40;;;7.38;;
21274;SDS011;36472;52.170;20.884;2023-03-05T13:42:01;9.70;;;5.20;;
21274;SDS011;36472;52.170;20.884;2023-03-05T13:44:33;11.95;;;5.72;;
21274;SDS011;36472;52.170;20.884;2023-03-05T13:47:13;9.73;;;5.80;;
21274;SDS011;36472;52.170;20.884;2023-03-05T13:49:45;11.30;;;5.30;;
21274;SDS011;36472;52.170;20.884;2023-03-05T13:52:23;11.97;;;5.60;;
21274;SDS011;36472;52.170;20.884;2023-03-05T13:54:54;11.13;;;6.20;;
21274;SDS011;36472;52.170;20.884;2023-03-05T13:57:33;11.80;;;6.60;;
21274;SDS011;36472;52.170;20.884;2023-03-05T14:00:22;9.77;;;6.43;;
21274;SDS011;36472;52.170;20.884;2023-03-05T14:02:59;10.75;;;5.47;;
21274;SDS011;36472;52.170;20.884;2023-03-05T14:05:41;9.48;;;4.97;;
21274;SDS011;36472;52.170;20.884;2023-03-05T14:08:14;7.15;;;4.88;;
21274;SDS011;36472;52.170;20.884;2023-03-05T14:10:50;11.23;;;6.35;;
21274;SDS011;36472;52.170;20.884;2023-03-05T14:13:20;8.90;;;5.60;;
21274;SDS011;36472;52.170;20.884;2023-03-05T14:16:03;9.90;;;5.47;;
21274;SDS011;36472;52.170;20.884;2023-03-05T14:18:35;7.85;;;5.03;;
21274;SDS011;36472;52.170;20.884;2023-03-05T14:21:06;10.43;;;5.83;;
21274;SDS011;36472;52.170;20.884;2023-03-05T14:23:38;8.17;;;5.20;;
21274;SDS011;36472;52.170;20.884;2023-03-05T14:26:21;8.67;;;5.40;;
21274;SDS011;36472;52.170;20.884;2023-03-05T14:28:56;10.57;;;4.80;;
21274;SDS011;36472;52.170;20.884;2023-03-05T14:31:29;8.40;;;5.13;;
21274;SDS011;36472;52.170;20.884;2023-03-05T14:34:05;8.02;;;4.80;;
21274;SDS011;36472;52.170;20.884;2023-03-05T14:36:35;9.80;;;5.03;;
21274;SDS011;36472;52.170;20.884;2023-03-05T14:39:04;7.90;;;5.17;;
21274;SDS011;36472;52.170;20.884;2023-03-05T14:41:35;11.00;;;5.78;;
21274;SDS011;36472;52.170;20.884;2023-03-05T14:44:10;9.82;;;5.70;;
21274;SDS011;36472;52.170;20.884;2023-03-05T14:46:46;10.65;;;5.60;;
21274;SDS011;36472;52.170;20.884;2023-03-05T14:49:18;9.70;;;5.82;;
21274;SDS011;36472;52.170;20.884;2023-03-05T14:51:47;10.65;;;6.10;;
21274;SDS011;36472;52.170;20.884;2023-03-05T14:54:17;9.90;;;5.78;;
21274;SDS011;36472;52.170;20.884;2023-03-05T14:56:48;9.57;;;6.90;;
21274;SDS011;36472;52.170;20.884;2023-03-05T14:59:18;12.82;;;7.05;;
21274;SDS011;36472;52.170;20.884;2023-03-05T15:01:48;12.30;;;6.95;;
21274;SDS011;36472;52.170;20.884;2023-03-05T15:04:18;11.80;;;7.30;;
21274;SDS011;36472;52.170;20.884;2023-03-05T15:06:47;11.95;;;7.35;;
21274;SDS011;36472;52.170;20.884;2023-03-05T15:09:17;9.23;;;7.00;;
21274;SDS011;36472;52.170;20.884;2023-03-05T15:11:47;11.32;;;8.18;;
21274;SDS011;36472;52.170;20.884;2023-03-05T15:14:16;12.77;;;8.50;;
21274;SDS011;36472;52.170;20.884;2023-03-05T15:16:45;9.15;;;6.00;;
21274;SDS011;36472;52.170;20.884;2023-03-05T15:19:14;11.23;;;6.28;;